map of RDU home
RDU - Airport
Location
City:  Raleigh/Durham, North Carolina, United States
Name:Raleigh-Durham International Airport
ICAO:KRDU
IATA:RDU
FAA LID:RDU

Details
Type:Airport (Part 139 Class I)
Use:Public/Civil, International (customs landing rights)
Latitude:3552'40"N (35.877639)
Longitude:7847'15"W (-78.787471)
Datum:WGS 1984
Elevation:435 ft (133 m)
Variation:9.21W (WMM2015 magnetic declination)
-0.04 annual change
Runways:3
Longest:10000 × 150 ft (3048 × 45.5 m), paved

Time
Time Zone:UTC-5 (DST-4)
Local Time:

Weather
METAR:KRDU 190151Z 05005KT 10SM CLR 23/16 A2998 RMK AO2 SLP148 T02330156
TAF:KRDU 182320Z 1900/1924 06004KT P6SM FEW060 SCT250

Related Locations
Nearby:
Farthest:YAUG: 11647 mi / 18744 km
Augusta [Augusta Airport], WA, AU

Find:

   beyond  
but within

Other Information
Maps:
Delays:
NOTAMs:
Links:
Sources:

  
  • flag of United States
  • flag of North Carolina
  

Airport Diagram

Airport diagram for RDU

Airport diagram PDF

Sectional Chart

Flight Planning
at skyvector.com

Satellite Image

Google Maps Satellite view

 

Copyright © 2004-2018 Karl L. Swartz. All rights reserved.
The Great Circle Mapper name and logo are trademarks of the Great Circle Mapper.
All other trademarks mentioned herein belong to their respective owners.
Please see credits for attibutions and further copyright information.

  Follow gcmap on Facebook Follow gcmap on Twitter Follow gcmap on Google+ GCmap on LinkedIn

hCard Microformat

Geo Microformat